Time;durP1;ratioP1;P1;durP2;ratioP2;P2;SDS_P1;SDS_P2;PMS_P1;PMS_P2;Temp;Humidity;BMP_temperature;BMP_pressure;BME280_temperature;BME280_humidity;BME280_pressure;Samples;Min_cycle;Max_cycle;Signal;HPM_P1;HPM_P2
2024/04/22 00:02:32;;;;;;;0.22;0.13;;;10.10;44.90;;;;;;6837174;26;20084;-68
2024/04/22 00:05:32;;;;;;;1.05;0.55;;;10.10;44.90;;;;;;6837646;26;20487;-68
2024/04/22 00:08:34;;;;;;;2.17;0.55;;;10.00;45.00;;;;;;6836343;26;20005;-68
2024/04/22 00:11:35;;;;;;;1.55;0.88;;;10.00;45.30;;;;;;6808640;26;20492;-68
2024/04/22 00:14:36;;;;;;;0.57;0.30;;;10.00;45.50;;;;;;6814394;25;20128;-69
2024/04/22 00:17:38;;;;;;;0.52;0.40;;;9.90;45.60;;;;;;6805906;26;20334;-66
2024/04/22 00:20:42;;;;;;;0.95;0.55;;;9.90;45.70;;;;;;6805583;25;20029;-67
2024/04/22 00:23:44;;;;;;;0.63;0.20;;;9.90;45.80;;;;;;6835671;26;20013;-68
2024/04/22 00:26:45;;;;;;;0.47;0.47;;;9.90;46.00;;;;;;6836336;26;20009;-68
2024/04/22 00:29:45;;;;;;;0.50;0.45;;;9.80;46.10;;;;;;6838844;25;20519;-67
2024/04/22 00:32:48;;;;;;;0.10;0.10;;;9.80;46.30;;;;;;6840593;25;20001;-66
2024/04/22 00:35:59;;;;;;;0.50;0.40;;;9.80;46.40;;;;;;6805672;26;20016;-68
2024/04/22 00:39:00;;;;;;;0.68;0.35;;;9.80;46.60;;;;;;6805699;26;20287;-69
2024/04/22 00:42:01;;;;;;;0.65;0.43;;;9.70;46.70;;;;;;6835663;26;20076;-67
2024/04/22 00:45:02;;;;;;;0.93;0.30;;;9.70;46.80;;;;;;6838013;26;20096;-68
2024/04/22 00:48:03;;;;;;;3.15;0.50;;;9.70;46.90;;;;;;6836857;26;20013;-68
2024/04/22 00:51:04;;;;;;;0.63;0.45;;;9.60;46.90;;;;;;6841756;26;20002;-68
2024/04/22 00:54:09;;;;;;;0.15;0.15;;;9.60;47.20;;;;;;6837167;26;20001;-68
2024/04/22 00:57:11;;;;;;;0.28;0.28;;;9.60;47.30;;;;;;6807789;26;20306;-68
2024/04/22 01:00:12;;;;;;;0.25;0.25;;;9.50;47.40;;;;;;6789075;26;20066;-67
2024/04/22 01:03:15;;;;;;;0.85;0.43;;;9.60;47.60;;;;;;6798756;26;20084;-68
2024/04/22 01:06:18;;;;;;;0.90;0.82;;;9.50;47.50;;;;;;6807218;26;20008;-67
2024/04/22 01:09:22;;;;;;;1.13;0.28;;;9.50;47.70;;;;;;6805604;26;20121;-67
2024/04/22 01:12:23;;;;;;;0.40;0.38;;;9.40;47.80;;;;;;6805982;26;20005;-68
2024/04/22 01:15:24;;;;;;;0.40;0.40;;;9.40;47.90;;;;;;6798626;26;20040;-68
2024/04/22 01:18:25;;;;;;;0.20;0.20;;;9.30;48.00;;;;;;6839288;26;20017;-68
2024/04/22 01:21:29;;;;;;;1.13;0.63;;;9.40;48.10;;;;;;6807105;26;19997;-68
2024/04/22 01:24:30;;;;;;;0.20;0.20;;;9.30;48.20;;;;;;6805896;26;20644;-70
2024/04/22 01:27:32;;;;;;;0.32;0.32;;;9.30;48.40;;;;;;6804594;26;20002;-68
2024/04/22 01:30:33;;;;;;;0.40;0.38;;;9.20;48.50;;;;;;6837376;26;20461;-67
2024/04/22 01:33:35;;;;;;;0.43;0.38;;;9.20;48.60;;;;;;6837225;26;20077;-67
2024/04/22 01:36:40;;;;;;;0.55;0.55;;;9.20;48.70;;;;;;6805327;26;20046;-68
2024/04/22 01:39:41;;;;;;;0.30;0.30;;;9.30;48.70;;;;;;6808834;26;19997;-68
2024/04/22 01:42:42;;;;;;;3.55;0.57;;;9.20;48.60;;;;;;6805909;26;20101;-67
2024/04/22 01:45:43;;;;;;;0.43;0.40;;;9.20;48.60;;;;;;6805625;26;20148;-69
2024/04/22 01:48:44;;;;;;;0.40;0.40;;;9.20;48.60;;;;;;6805458;26;20025;-68
2024/04/22 01:51:46;;;;;;;0.25;0.25;;;9.20;48.80;;;;;;6802809;26;19997;-68
2024/04/22 01:54:48;;;;;;;0.28;0.25;;;9.20;48.90;;;;;;6774551;26;20073;-68
2024/04/22 01:57:49;;;;;;;0.93;0.68;;;9.20;49.00;;;;;;6804111;26;20051;-68
2024/04/22 02:00:50;;;;;;;0.28;0.28;;;9.10;49.00;;;;;;6804354;25;19993;-66
2024/04/22 02:03:50;;;;;;;0.20;0.20;;;9.10;49.20;;;;;;6836480;26;20032;-68
2024/04/22 02:06:52;;;;;;;0.63;0.35;;;9.10;49.30;;;;;;6807310;26;20080;-66
2024/04/22 02:09:53;;;;;;;1.35;0.60;;;9.10;49.30;;;;;;6808881;26;19997;-68
2024/04/22 02:12:53;;;;;;;0.70;0.70;;;9.00;49.30;;;;;;6808866;26;20067;-67
2024/04/22 02:15:54;;;;;;;2.00;0.70;;;9.00;49.40;;;;;;6839732;26;20708;-67
2024/04/22 02:18:57;;;;;;;5.78;0.82;;;9.00;49.50;;;;;;6808235;26;20031;-68
2024/04/22 02:21:58;;;;;;;0.55;0.50;;;8.90;49.40;;;;;;6839944;26;20105;-67
2024/04/22 02:24:59;;;;;;;0.70;0.40;;;8.90;49.40;;;;;;6840904;26;20072;-67
2024/04/22 02:27:59;;;;;;;4.88;0.40;;;8.90;49.50;;;;;;6777198;26;20001;-67
2024/04/22 02:31:00;;;;;;;1.48;0.57;;;8.80;49.60;;;;;;6840444;26;20002;-67
2024/04/22 02:34:02;;;;;;;0.70;0.60;;;8.80;49.70;;;;;;6840433;25;20009;-66
2024/04/22 02:37:03;;;;;;;0.47;0.40;;;8.80;49.80;;;;;;6839165;26;20040;-67
2024/04/22 02:40:04;;;;;;;1.08;0.73;;;8.80;49.80;;;;;;6806990;26;20067;-66
2024/04/22 02:43:05;;;;;;;0.70;0.70;;;8.80;49.90;;;;;;6807051;26;20016;-68
2024/04/22 02:46:06;;;;;;;0.40;0.40;;;8.80;49.90;;;;;;6839782;26;20001;-67
2024/04/22 02:49:08;;;;;;;0.55;0.55;;;8.90;50.00;;;;;;6839908;26;20405;-67
2024/04/22 02:52:09;;;;;;;1.05;0.80;;;8.70;49.80;;;;;;6839393;25;20124;-66
2024/04/22 02:55:10;;;;;;;0.98;0.60;;;8.70;49.80;;;;;;6780129;26;20012;-67
2024/04/22 02:58:11;;;;;;;0.75;0.40;;;8.70;49.90;;;;;;6839247;25;19993;-67
2024/04/22 03:01:12;;;;;;;0.68;0.68;;;8.70;50.00;;;;;;6806309;25;20463;-67
2024/04/22 03:04:13;;;;;;;1.75;0.75;;;8.70;50.10;;;;;;6806704;26;20001;-66
2024/04/22 03:07:14;;;;;;;0.40;0.40;;;8.70;50.10;;;;;;6835540;26;19993;-68
2024/04/22 03:10:17;;;;;;;2.80;0.60;;;8.70;50.20;;;;;;6838655;25;20006;-66
2024/04/22 03:13:18;;;;;;;2.63;0.90;;;8.70;50.40;;;;;;6807004;26;20445;-68
2024/04/22 03:16:19;;;;;;;0.90;0.47;;;8.70;50.40;;;;;;6838835;25;19993;-68
2024/04/22 03:19:21;;;;;;;0.70;0.60;;;8.70;50.40;;;;;;6838474;26;19997;-68
2024/04/22 03:22:22;;;;;;;2.25;0.60;;;8.70;50.50;;;;;;6840103;26;20313;-67
2024/04/22 03:25:24;;;;;;;0.80;0.73;;;8.70;50.40;;;;;;6838775;25;19998;-67
2024/04/22 03:28:25;;;;;;;0.85;0.50;;;8.70;50.30;;;;;;6806330;25;19998;-68
2024/04/22 03:31:26;;;;;;;0.63;0.43;;;8.80;50.30;;;;;;6837894;26;20050;-66
2024/04/22 03:34:27;;;;;;;0.85;0.60;;;8.80;50.30;;;;;;6837557;26;20016;-68
2024/04/22 03:37:28;;;;;;;1.20;0.73;;;8.80;50.40;;;;;;6801662;26;20016;-67
2024/04/22 03:40:29;;;;;;;1.33;0.80;;;8.70;50.50;;;;;;6837462;26;20420;-67
2024/04/22 03:43:30;;;;;;;1.05;0.68;;;8.70;50.60;;;;;;6837645;26;20111;-68
2024/04/22 03:49:55;;;;;;;3.80;1.00;;;8.70;50.50;;;;;;6839156;26;20168;-66
2024/04/22 03:52:58;;;;;;;1.38;0.93;;;8.80;50.50;;;;;;6807647;26;20002;-67
2024/04/22 03:55:58;;;;;;;1.00;0.88;;;8.80;50.50;;;;;;6838102;26;20002;-67
2024/04/22 03:59:00;;;;;;;0.68;0.50;;;8.80;50.50;;;;;;6837195;26;20007;-67
2024/04/22 04:02:02;;;;;;;0.70;0.63;;;8.80;50.50;;;;;;6806998;26;19997;-67
2024/04/22 04:05:03;;;;;;;0.50;0.50;;;8.80;50.60;;;;;;6793526;26;20088;-66
2024/04/22 04:08:04;;;;;;;0.82;0.80;;;8.80;50.70;;;;;;6787823;26;20318;-67
2024/04/22 04:11:12;;;;;;;5.30;1.10;;;8.80;50.80;;;;;;6837309;26;19994;-67
2024/04/22 04:14:13;;;;;;;0.75;0.73;;;8.80;50.80;;;;;;6806772;26;20028;-66
2024/04/22 04:17:14;;;;;;;1.73;0.90;;;8.80;50.90;;;;;;6838919;25;20013;-66
2024/04/22 04:20:15;;;;;;;1.88;1.17;;;8.80;50.90;;;;;;6836976;25;19997;-68
2024/04/22 04:23:15;;;;;;;1.00;0.73;;;8.80;51.10;;;;;;6837748;26;19997;-68
2024/04/22 04:26:16;;;;;;;1.48;0.77;;;8.70;51.10;;;;;;6837331;26;20558;-67
2024/04/22 04:29:18;;;;;;;1.30;0.93;;;8.80;51.30;;;;;;6837876;26;20551;-67
2024/04/22 04:32:19;;;;;;;1.73;1.10;;;8.70;51.30;;;;;;6835964;26;20065;-66
2024/04/22 04:35:21;;;;;;;1.50;0.80;;;8.60;51.30;;;;;;6805123;26;19997;-66
2024/04/22 04:38:21;;;;;;;3.22;1.58;;;8.70;51.20;;;;;;6836201;26;20025;-67
2024/04/22 04:41:23;;;;;;;1.23;0.93;;;8.70;51.20;;;;;;6838095;25;19990;-67
2024/04/22 04:44:25;;;;;;;2.20;1.08;;;8.70;51.20;;;;;;6836368;26;20432;-68
2024/04/22 04:47:26;;;;;;;0.70;0.68;;;8.70;51.30;;;;;;6836816;25;19998;-68
2024/04/22 04:50:27;;;;;;;2.40;1.08;;;8.70;51.40;;;;;;6836129;26;20359;-70
2024/04/22 04:53:28;;;;;;;2.38;1.02;;;8.60;51.30;;;;;;6837858;26;20422;-67
2024/04/22 04:56:32;;;;;;;0.57;0.57;;;8.70;51.40;;;;;;6836580;26;20367;-68
2024/04/22 04:59:32;;;;;;;2.35;1.48;;;8.60;51.40;;;;;;6806534;26;20002;-67
2024/04/22 05:02:33;;;;;;;2.45;0.82;;;8.60;51.50;;;;;;6835414;25;20494;-68
2024/04/22 05:05:35;;;;;;;1.02;0.93;;;8.60;51.60;;;;;;6836196;25;20065;-68
2024/04/22 05:08:35;;;;;;;2.88;1.52;;;8.50;51.70;;;;;;6835742;26;20101;-67
2024/04/22 05:11:37;;;;;;;1.40;1.02;;;8.50;51.90;;;;;;6836583;26;19989;-68
2024/04/22 05:14:38;;;;;;;0.80;0.80;;;8.50;51.90;;;;;;6838086;26;19989;-67
2024/04/22 05:17:40;;;;;;;6.28;0.93;;;8.50;51.90;;;;;;6806094;26;20679;-68
2024/04/22 05:20:42;;;;;;;0.60;0.60;;;8.50;52.00;;;;;;6839211;26;19997;-67
2024/04/22 05:23:45;;;;;;;2.03;1.05;;;8.50;51.90;;;;;;6837337;25;20340;-68
2024/04/22 05:30:50;;;;;;;1.50;0.88;;;8.50;51.90;;;;;;6835692;25;20036;-67
2024/04/22 05:37:17;;;;;;;1.20;0.73;;;8.50;52.20;;;;;;6835912;26;20011;-68
2024/04/22 05:40:18;;;;;;;1.48;1.00;;;8.60;52.20;;;;;;6826559;26;20367;-67
2024/04/22 05:43:19;;;;;;;1.10;1.00;;;8.60;52.10;;;;;;6834920;26;20012;-68
2024/04/22 05:46:20;;;;;;;0.77;0.75;;;8.60;52.70;;;;;;6804328;26;20045;-67
2024/04/22 05:49:22;;;;;;;1.30;0.75;;;8.60;52.10;;;;;;6834155;25;20013;-69
2024/04/22 05:52:23;;;;;;;0.88;0.77;;;8.60;52.00;;;;;;6831035;25;20379;-67
2024/04/22 05:55:24;;;;;;;1.95;1.20;;;8.70;52.00;;;;;;6836182;26;20013;-67
2024/04/22 05:58:25;;;;;;;2.40;0.80;;;8.70;51.90;;;;;;6834791;26;20005;-67
2024/04/22 06:01:27;;;;;;;1.30;1.20;;;8.80;51.90;;;;;;6805911;26;20049;-67
2024/04/22 06:04:29;;;;;;;1.83;0.93;;;8.80;51.80;;;;;;6835230;26;20445;-67
2024/04/22 06:07:30;;;;;;;2.70;1.20;;;8.80;51.70;;;;;;6836423;26;20008;-67
2024/04/22 06:10:31;;;;;;;3.88;0.65;;;8.80;51.70;;;;;;6836252;25;20021;-67
2024/04/22 06:13:32;;;;;;;0.35;0.35;;;8.80;51.70;;;;;;6834276;26;19998;-69
2024/04/22 06:16:34;;;;;;;0.77;0.70;;;8.80;52.30;;;;;;6834059;26;20028;-67
2024/04/22 06:19:34;;;;;;;2.40;1.38;;;8.80;51.80;;;;;;6834209;26;20442;-68
2024/04/22 06:22:35;;;;;;;1.08;0.80;;;8.80;51.80;;;;;;6834115;26;20070;-67
2024/04/22 06:25:36;;;;;;;3.38;0.85;;;8.80;51.80;;;;;;6834616;26;20090;-67
2024/04/22 06:28:37;;;;;;;1.65;1.13;;;8.80;51.90;;;;;;6834582;26;19997;-68
2024/04/22 06:31:39;;;;;;;0.90;0.90;;;8.70;52.10;;;;;;6834186;26;20001;-68
2024/04/22 06:34:40;;;;;;;1.52;1.10;;;8.70;52.10;;;;;;6804231;26;20012;-67
2024/04/22 06:37:44;;;;;;;1.42;0.90;;;8.70;52.20;;;;;;6834673;26;19998;-67
2024/04/22 06:40:46;;;;;;;1.27;1.17;;;8.70;52.10;;;;;;6833376;26;19998;-69
2024/04/22 06:43:48;;;;;;;1.15;0.82;;;8.70;52.10;;;;;;6831674;26;19997;-67
2024/04/22 06:46:49;;;;;;;0.95;0.90;;;8.70;52.10;;;;;;6802731;26;20600;-67
2024/04/22 06:49:50;;;;;;;0.50;0.50;;;8.70;52.00;;;;;;6835442;26;20008;-68
2024/04/22 06:52:51;;;;;;;1.33;1.05;;;8.80;52.00;;;;;;6836461;26;19993;-68
2024/04/22 06:55:52;;;;;;;3.72;1.10;;;8.80;52.00;;;;;;6839037;25;20005;-68
2024/04/22 06:58:53;;;;;;;0.98;0.80;;;8.80;52.00;;;;;;6807314;26;20069;-67
2024/04/22 07:01:55;;;;;;;1.23;1.10;;;8.70;52.10;;;;;;6777950;26;20002;-68
2024/04/22 07:04:56;;;;;;;1.23;0.95;;;8.70;52.30;;;;;;6840893;26;20517;-67
2024/04/22 07:07:57;;;;;;;1.05;0.98;;;8.70;52.40;;;;;;6778499;26;20004;-67
2024/04/22 07:10:58;;;;;;;1.98;1.38;;;8.70;52.40;;;;;;6799697;26;20112;-69
2024/04/22 07:13:59;;;;;;;1.58;1.27;;;8.70;52.30;;;;;;6806444;26;20445;-67
2024/04/22 07:16:59;;;;;;;2.97;1.15;;;8.80;52.30;;;;;;6776374;26;20009;-67
2024/04/22 07:20:00;;;;;;;1.58;1.10;;;8.90;52.30;;;;;;6838694;26;20355;-67
2024/04/22 07:23:03;;;;;;;1.17;0.95;;;8.90;52.10;;;;;;6806690;26;20001;-69
2024/04/22 07:26:04;;;;;;;0.73;0.73;;;9.00;52.00;;;;;;6806100;26;20764;-66
2024/04/22 07:29:07;;;;;;;1.40;1.00;;;9.10;51.90;;;;;;6805568;26;20008;-67
2024/04/22 07:32:09;;;;;;;1.95;1.00;;;9.20;51.70;;;;;;6806341;26;20065;-67
2024/04/22 07:35:10;;;;;;;0.88;0.55;;;9.30;51.40;;;;;;6776164;26;20010;-68
2024/04/22 07:38:19;;;;;;;1.20;1.00;;;9.30;51.20;;;;;;6839513;26;20009;-67
2024/04/22 07:41:20;;;;;;;0.77;0.77;;;9.40;51.00;;;;;;6805388;26;20017;-66
2024/04/22 07:44:23;;;;;;;5.82;1.48;;;9.40;50.80;;;;;;6806165;26;20016;-66
2024/04/22 07:47:24;;;;;;;3.70;1.58;;;9.40;50.70;;;;;;6806072;26;20803;-68
2024/04/22 07:50:25;;;;;;;1.20;1.10;;;9.40;50.60;;;;;;6826691;26;20008;-68
2024/04/22 07:53:27;;;;;;;5.07;1.45;;;9.50;50.60;;;;;;6806173;26;19997;-67
2024/04/22 07:56:28;;;;;;;1.95;0.98;;;9.50;50.60;;;;;;6829857;26;20069;-69
2024/04/22 07:59:30;;;;;;;1.60;1.08;;;9.50;50.50;;;;;;6838859;26;19993;-67
2024/04/22 08:02:31;;;;;;;0.77;0.77;;;9.50;50.30;;;;;;6836354;26;20392;-68
2024/04/22 08:05:32;;;;;;;3.30;1.00;;;9.50;50.20;;;;;;6806461;26;20009;-66
2024/04/22 08:08:38;;;;;;;5.50;2.15;;;9.50;50.20;;;;;;6839241;26;20007;-68
2024/04/22 08:11:38;;;;;;;2.65;1.40;;;9.50;50.20;;;;;;6837007;26;20070;-66
2024/04/22 08:14:40;;;;;;;2.40;1.20;;;9.40;50.20;;;;;;6839426;26;20021;-67
2024/04/22 08:17:41;;;;;;;2.33;1.40;;;9.40;50.20;;;;;;6838685;26;20044;-70
2024/04/22 08:20:42;;;;;;;1.48;1.10;;;9.40;50.30;;;;;;6836176;26;19997;-68
2024/04/22 08:23:43;;;;;;;1.63;1.50;;;9.40;50.30;;;;;;6810033;26;20010;-67
2024/04/22 08:26:44;;;;;;;0.82;0.75;;;9.40;50.10;;;;;;6791022;26;20124;-68
2024/04/22 08:29:45;;;;;;;3.88;1.50;;;9.50;50.00;;;;;;6792779;26;19998;-70
2024/04/22 08:32:46;;;;;;;1.85;0.95;;;9.60;49.80;;;;;;6836869;26;19993;-67
2024/04/22 08:35:48;;;;;;;3.42;1.27;;;9.70;49.60;;;;;;6837737;26;20127;-68
2024/04/22 08:38:51;;;;;;;1.50;1.10;;;9.70;49.60;;;;;;6837361;26;20091;-67
2024/04/22 08:41:51;;;;;;;1.55;1.15;;;9.80;49.60;;;;;;6830656;26;20013;-68
2024/04/22 08:44:52;;;;;;;1.95;1.08;;;9.80;49.60;;;;;;6806566;26;19993;-67
2024/04/22 08:47:53;;;;;;;6.88;1.42;;;9.90;49.50;;;;;;6806606;26;20338;-67
2024/04/22 08:50:55;;;;;;;3.55;1.10;;;10.00;49.20;;;;;;6836231;25;20000;-69
2024/04/22 08:53:59;;;;;;;3.50;0.95;;;10.00;49.10;;;;;;6839553;26;20361;-68
2024/04/22 08:57:00;;;;;;;1.85;1.13;;;10.00;49.10;;;;;;6807060;26;20002;-68
2024/04/22 09:00:02;;;;;;;2.22;1.25;;;10.00;49.00;;;;;;6839000;25;20125;-67
2024/04/22 09:03:03;;;;;;;0.93;0.90;;;10.00;48.90;;;;;;6805478;26;20461;-70
2024/04/22 09:06:04;;;;;;;0.88;0.88;;;10.00;48.80;;;;;;6838291;26;19998;-69
2024/04/22 09:09:07;;;;;;;1.33;1.00;;;9.90;48.90;;;;;;6806105;26;20203;-68
2024/04/22 09:12:17;;;;;;;1.45;1.05;;;9.90;49.10;;;;;;6837557;26;20405;-69
2024/04/22 09:15:18;;;;;;;2.45;1.25;;;9.90;49.10;;;;;;6775284;26;20001;-65
2024/04/22 09:18:19;;;;;;;2.90;1.20;;;9.90;49.20;;;;;;6805573;26;20008;-72
2024/04/22 09:21:20;;;;;;;1.27;0.90;;;9.80;49.20;;;;;;6775626;26;20013;-68
2024/04/22 09:24:21;;;;;;;1.08;1.00;;;9.80;49.20;;;;;;6746861;26;20012;-68
2024/04/22 09:27:26;;;;;;;1.23;0.95;;;9.90;49.00;;;;;;6805703;26;20002;-68
2024/04/22 09:30:38;;;;;;;1.75;1.02;;;9.90;48.70;;;;;;6805804;26;20421;-67
2024/04/22 09:33:41;;;;;;;4.70;1.52;;;9.90;48.60;;;;;;6833693;26;20001;-68
2024/04/22 09:36:42;;;;;;;2.75;1.50;;;10.00;48.60;;;;;;6838593;26;19993;-66
2024/04/22 09:39:43;;;;;;;2.17;1.48;;;10.00;48.40;;;;;;6838350;26;20009;-68
2024/04/22 09:42:45;;;;;;;3.05;1.10;;;9.80;48.90;;;;;;6805759;26;20026;-68
2024/04/22 09:45:47;;;;;;;1.33;0.98;;;9.90;48.40;;;;;;6805591;26;20029;-69
2024/04/22 09:48:49;;;;;;;1.48;1.20;;;9.80;48.40;;;;;;6838515;26;20073;-67
2024/04/22 09:51:52;;;;;;;1.00;0.88;;;9.80;48.50;;;;;;6804824;26;20451;-69
2024/04/22 09:54:53;;;;;;;1.02;0.93;;;9.90;48.70;;;;;;6774801;26;20021;-68
2024/04/22 09:57:58;;;;;;;1.55;1.00;;;9.80;48.60;;;;;;6805691;26;20306;-66
2024/04/22 10:01:00;;;;;;;1.80;1.63;;;9.80;48.80;;;;;;6837518;26;20008;-67
2024/04/22 10:04:01;;;;;;;1.38;0.95;;;9.80;48.80;;;;;;6804149;26;20005;-66
2024/04/22 10:07:03;;;;;;;2.85;1.20;;;9.90;49.50;;;;;;6803507;26;20156;-67
2024/04/22 10:10:08;;;;;;;2.05;1.50;;;9.80;48.90;;;;;;6773971;26;20004;-68
2024/04/22 10:13:11;;;;;;;1.73;1.17;;;9.90;48.90;;;;;;6835759;26;20542;-68
2024/04/22 10:16:13;;;;;;;1.48;1.25;;;10.00;48.70;;;;;;6794217;25;20405;-67
2024/04/22 10:19:14;;;;;;;2.22;1.23;;;10.10;48.30;;;;;;6792009;26;20312;-67
2024/04/22 10:22:15;;;;;;;2.47;1.08;;;10.20;48.20;;;;;;6790025;26;20004;-66
2024/04/22 10:25:18;;;;;;;1.20;1.00;;;10.30;48.00;;;;;;6838631;26;20002;-66
2024/04/22 10:28:19;;;;;;;1.38;0.90;;;10.40;47.90;;;;;;6778917;26;20004;-68
2024/04/22 10:31:21;;;;;;;2.13;1.50;;;10.60;47.80;;;;;;6840825;26;19993;-67
2024/04/22 10:34:22;;;;;;;0.63;0.52;;;10.70;47.80;;;;;;6808202;26;20017;-68
2024/04/22 10:37:23;;;;;;;2.85;1.30;;;10.70;47.70;;;;;;6841474;26;20037;-70
2024/04/22 10:40:25;;;;;;;1.52;1.10;;;10.70;48.00;;;;;;6807970;26;19997;-67
2024/04/22 10:43:26;;;;;;;1.77;1.33;;;10.70;48.20;;;;;;6840401;26;20062;-68
2024/04/22 10:46:27;;;;;;;2.58;1.45;;;10.70;48.50;;;;;;6809760;26;20002;-69
2024/04/22 10:49:45;;;;;;;3.35;1.73;;;10.60;48.70;;;;;;6812824;26;20002;-68
2024/04/22 10:52:47;;;;;;;2.08;1.13;;;10.60;49.50;;;;;;6801105;26;20428;-69
2024/04/22 10:55:49;;;;;;;5.40;1.42;;;10.60;49.00;;;;;;6824125;26;19998;-67
2024/04/22 10:58:52;;;;;;;1.73;1.50;;;10.70;49.00;;;;;;6841168;25;20501;-68
2024/04/22 11:01:53;;;;;;;4.22;1.30;;;10.80;49.20;;;;;;6842922;25;20013;-68
2024/04/22 11:04:54;;;;;;;1.42;1.13;;;10.90;49.10;;;;;;6838398;26;20085;-70
2024/04/22 11:07:57;;;;;;;1.65;1.23;;;11.00;48.90;;;;;;6838177;26;20145;-67
2024/04/22 11:10:59;;;;;;;1.95;1.30;;;11.10;48.70;;;;;;6839054;25;20006;-66
2024/04/22 11:14:02;;;;;;;5.53;1.83;;;11.20;48.50;;;;;;6777642;26;20081;-67
2024/04/22 11:17:04;;;;;;;1.55;1.30;;;11.30;48.30;;;;;;6840418;26;20001;-69
2024/04/22 11:20:10;;;;;;;1.80;0.98;;;11.30;48.20;;;;;;6803153;26;20096;-66
2024/04/22 11:23:12;;;;;;;3.20;1.65;;;11.50;48.10;;;;;;6837294;25;20736;-66
2024/04/22 11:26:13;;;;;;;1.77;1.15;;;11.60;47.90;;;;;;6807300;26;20029;-67
2024/04/22 11:29:15;;;;;;;4.75;1.38;;;11.70;47.70;;;;;;6838657;25;20314;-67
2024/04/22 11:32:18;;;;;;;2.33;1.40;;;11.70;47.80;;;;;;6839985;26;20061;-68
2024/04/22 11:35:19;;;;;;;3.83;1.73;;;11.50;48.20;;;;;;6837933;26;19994;-67
2024/04/22 11:38:20;;;;;;;2.17;1.33;;;11.60;48.30;;;;;;6806685;26;20355;-66
2024/04/22 11:41:21;;;;;;;4.32;1.83;;;11.60;48.40;;;;;;6808179;26;20008;-68
2024/04/22 11:44:25;;;;;;;2.17;1.67;;;11.70;48.30;;;;;;6837551;26;20430;-67
2024/04/22 11:47:27;;;;;;;3.22;1.70;;;11.80;48.30;;;;;;6838304;26;20132;-67
2024/04/22 11:50:28;;;;;;;2.15;1.30;;;11.80;48.70;;;;;;6838480;26;20027;-68
2024/04/22 11:53:29;;;;;;;3.45;1.48;;;11.80;49.10;;;;;;6805275;26;20041;-68
2024/04/22 11:56:35;;;;;;;1.73;1.20;;;11.90;49.40;;;;;;6837085;25;20402;-68
2024/04/22 11:59:36;;;;;;;2.22;1.75;;;12.10;49.00;;;;;;6838271;26;20013;-68
2024/04/22 12:02:37;;;;;;;3.17;1.20;;;12.40;48.80;;;;;;6840091;25;20005;-67
2024/04/22 12:05:37;;;;;;;1.10;1.00;;;12.50;48.60;;;;;;6837450;26;20508;-68
2024/04/22 12:08:38;;;;;;;5.25;1.25;;;12.60;48.20;;;;;;6807792;26;20470;-68
2024/04/22 12:11:39;;;;;;;7.65;2.00;;;12.70;48.10;;;;;;6838212;26;20013;-69
2024/04/22 12:14:41;;;;;;;2.58;1.25;;;12.60;48.00;;;;;;6840108;25;20005;-69
2024/04/22 12:17:42;;;;;;;0.80;0.80;;;12.40;48.00;;;;;;6838791;26;20016;-68
2024/04/22 12:20:44;;;;;;;2.67;1.17;;;12.20;48.50;;;;;;6837224;26;20016;-66
2024/04/22 12:23:45;;;;;;;1.88;0.90;;;12.00;49.00;;;;;;6802919;26;20088;-68
2024/04/22 12:26:46;;;;;;;1.33;0.93;;;11.70;49.70;;;;;;6837773;26;20050;-67
2024/04/22 12:29:47;;;;;;;1.55;1.10;;;11.60;50.30;;;;;;6839919;25;19998;-65
2024/04/22 12:32:48;;;;;;;0.52;0.52;;;11.50;50.40;;;;;;6837642;26;20418;-66
2024/04/22 12:35:49;;;;;;;1.50;0.70;;;11.50;50.60;;;;;;6839243;25;20442;-68
2024/04/22 12:38:49;;;;;;;1.92;1.08;;;11.60;50.30;;;;;;6807539;26;20025;-67
2024/04/22 12:41:52;;;;;;;2.42;1.10;;;11.70;50.00;;;;;;6840372;25;20004;-69
2024/04/22 12:44:53;;;;;;;1.05;0.82;;;11.90;49.40;;;;;;6836586;25;19993;-67
2024/04/22 12:51:14;;;;;;;1.05;0.65;;;12.40;48.90;;;;;;6836808;25;20149;-68
2024/04/22 12:54:15;;;;;;;1.52;1.08;;;12.90;48.00;;;;;;6806360;26;20004;-67
2024/04/22 12:57:16;;;;;;;1.92;1.05;;;13.30;47.80;;;;;;6806151;26;20001;-68
2024/04/22 13:00:18;;;;;;;2.50;1.20;;;13.40;46.80;;;;;;6775819;26;20010;-67
2024/04/22 13:03:19;;;;;;;0.73;0.73;;;13.60;46.60;;;;;;6807887;26;20013;-69
2024/04/22 13:06:20;;;;;;;4.30;1.70;;;13.80;46.20;;;;;;6760276;26;20105;-67
2024/04/22 13:09:21;;;;;;;3.53;1.02;;;14.30;45.60;;;;;;6790178;26;19998;-67
2024/04/22 13:12:22;;;;;;;5.63;1.10;;;15.20;44.10;;;;;;6792554;26;20001;-68
2024/04/22 13:15:24;;;;;;;2.55;1.10;;;15.90;42.50;;;;;;6801579;26;20008;-67
2024/04/22 13:18:25;;;;;;;1.45;0.95;;;15.90;41.50;;;;;;6806091;26;19994;-68
2024/04/22 13:21:26;;;;;;;0.80;0.75;;;15.60;42.20;;;;;;6805668;26;19997;-69
2024/04/22 13:24:27;;;;;;;1.55;1.08;;;15.40;42.70;;;;;;6817918;25;20012;-68
2024/04/22 13:27:28;;;;;;;1.35;1.25;;;15.00;43.10;;;;;;6838984;26;20009;-67
2024/04/22 13:30:29;;;;;;;1.55;1.20;;;14.70;43.90;;;;;;6806491;26;20001;-68
2024/04/22 13:33:31;;;;;;;1.17;0.90;;;14.60;44.20;;;;;;6805777;26;19997;-68
2024/04/22 13:36:31;;;;;;;2.25;1.50;;;14.70;44.30;;;;;;6838456;26;20133;-69
2024/04/22 13:39:32;;;;;;;1.85;1.20;;;14.90;44.40;;;;;;6839645;25;20046;-66
2024/04/22 13:42:33;;;;;;;3.35;1.73;;;14.90;44.00;;;;;;6805683;26;20008;-67
2024/04/22 13:45:35;;;;;;;1.55;1.20;;;14.90;44.20;;;;;;6763926;26;20010;-68
2024/04/22 13:48:36;;;;;;;0.98;0.80;;;15.30;43.60;;;;;;6805865;26;20056;-68
2024/04/22 13:51:38;;;;;;;2.33;1.10;;;15.30;43.20;;;;;;6805482;26;19990;-67
2024/04/22 13:54:39;;;;;;;1.33;0.95;;;15.00;43.50;;;;;;6788520;26;19990;-66
2024/04/22 13:57:40;;;;;;;0.93;0.73;;;14.70;44.00;;;;;;6806421;26;19997;-68
2024/04/22 14:00:41;;;;;;;0.85;0.80;;;14.30;44.40;;;;;;6808907;26;19997;-68
2024/04/22 14:03:42;;;;;;;1.00;0.85;;;13.80;46.30;;;;;;6849274;25;21670;-69
2024/04/22 14:06:44;;;;;;;0.88;0.73;;;13.20;47.90;;;;;;6847887;26;20369;-69
2024/04/22 14:09:45;;;;;;;1.05;0.82;;;12.60;49.40;;;;;;6785178;26;19993;-67
2024/04/22 14:12:46;;;;;;;1.23;1.10;;;12.10;50.80;;;;;;6815097;25;20029;-69
2024/04/22 14:15:47;;;;;;;1.88;0.82;;;11.80;52.00;;;;;;6847693;26;20639;-67
2024/04/22 14:18:48;;;;;;;1.17;0.75;;;11.60;53.10;;;;;;6784648;25;20039;-68
2024/04/22 14:21:49;;;;;;;2.97;1.13;;;11.40;53.50;;;;;;6769704;26;20560;-68
2024/04/22 14:24:50;;;;;;;1.00;0.80;;;11.30;53.60;;;;;;6782569;26;20422;-68
2024/04/22 14:27:51;;;;;;;1.00;0.90;;;11.30;53.80;;;;;;6814702;26;19997;-67
2024/04/22 14:30:55;;;;;;;1.38;0.80;;;11.40;53.80;;;;;;6814209;26;20014;-67
2024/04/22 14:33:57;;;;;;;2.72;0.90;;;11.60;53.60;;;;;;6815204;26;20029;-68
2024/04/22 14:36:58;;;;;;;1.55;0.82;;;11.90;53.20;;;;;;6813917;26;20033;-70
2024/04/22 14:40:02;;;;;;;1.00;0.90;;;12.20;52.70;;;;;;6784433;26;20012;-69
2024/04/22 14:43:03;;;;;;;2.38;0.90;;;12.50;52.00;;;;;;6814989;26;20032;-70
2024/04/22 14:46:04;;;;;;;1.55;1.05;;;12.80;51.40;;;;;;6814425;26;20012;-68
2024/04/22 14:49:05;;;;;;;2.30;1.27;;;13.00;50.90;;;;;;6847415;26;20077;-68
2024/04/22 14:52:08;;;;;;;1.27;1.13;;;12.90;50.70;;;;;;6846816;25;19997;-66
2024/04/22 14:55:09;;;;;;;0.90;0.80;;;12.70;50.90;;;;;;6846529;26;20084;-70
2024/04/22 14:58:10;;;;;;;1.13;0.95;;;12.50;51.10;;;;;;6818286;26;20001;-69
2024/04/22 15:01:11;;;;;;;1.30;0.93;;;12.20;51.40;;;;;;6814490;26;20140;-67
2024/04/22 15:04:12;;;;;;;1.42;1.05;;;12.00;52.10;;;;;;6813914;26;19997;-67
2024/04/22 15:07:14;;;;;;;2.03;0.95;;;11.80;52.40;;;;;;6813192;26;20150;-68
2024/04/22 15:10:16;;;;;;;0.82;0.77;;;11.80;52.90;;;;;;6814246;26;20146;-68
2024/04/22 15:13:18;;;;;;;1.20;0.65;;;11.80;53.30;;;;;;6840015;25;20012;-67
2024/04/22 15:16:20;;;;;;;1.60;0.80;;;11.80;53.60;;;;;;6840521;26;20012;-68
2024/04/22 15:19:23;;;;;;;1.60;1.10;;;11.70;53.90;;;;;;6839320;25;20403;-68
2024/04/22 15:22:25;;;;;;;1.75;1.25;;;11.80;54.20;;;;;;6840908;26;20032;-68
2024/04/22 15:25:25;;;;;;;2.05;1.10;;;11.80;54.40;;;;;;6807744;25;20005;-67
2024/04/22 15:28:26;;;;;;;2.53;1.27;;;12.00;54.40;;;;;;6787745;26;19994;-67
2024/04/22 15:31:27;;;;;;;1.90;1.30;;;12.10;53.90;;;;;;6763528;26;20597;-69
2024/04/22 15:34:28;;;;;;;2.65;1.13;;;12.20;53.90;;;;;;6766895;26;19998;-68
2024/04/22 15:37:29;;;;;;;1.45;1.20;;;12.20;53.50;;;;;;6841261;26;20441;-69
2024/04/22 15:40:30;;;;;;;1.42;1.10;;;12.30;53.50;;;;;;6778195;26;20005;-68
2024/04/22 15:43:41;;;;;;;1.92;1.20;;;12.40;53.20;;;;;;6807647;26;20005;-67
2024/04/22 15:46:42;;;;;;;1.67;0.98;;;12.70;53.10;;;;;;6840115;26;20020;-68
2024/04/22 15:49:43;;;;;;;1.50;1.30;;;13.20;52.20;;;;;;6807096;26;20008;-68
2024/04/22 15:52:44;;;;;;;1.70;1.10;;;14.40;50.10;;;;;;6839775;26;20003;-68
2024/04/22 15:55:56;;;;;;;2.72;1.27;;;15.60;47.20;;;;;;6837433;26;20001;-67
2024/04/22 15:58:56;;;;;;;4.30;1.58;;;15.70;45.70;;;;;;6760569;26;20109;-69
2024/04/22 16:01:57;;;;;;;1.27;1.10;;;15.40;45.50;;;;;;6792686;26;20002;-71
2024/04/22 16:05:01;;;;;;;1.45;1.10;;;14.90;45.80;;;;;;6826558;26;19998;-68
2024/04/22 16:08:02;;;;;;;5.18;1.30;;;14.30;46.60;;;;;;6776102;26;20012;-68